Time;durP1;ratioP1;P1;durP2;ratioP2;P2;SDS_P1;SDS_P2;PMS_P1;PMS_P2;Temp;Humidity;BMP_temperature;BMP_pressure;BME280_temperature;BME280_humidity;BME280_pressure;Samples;Min_cycle;Max_cycle;Signal;HPM_P1;HPM_P2
2022/11/03 00:01:37;;;;;;;;;;;;;;;;;;;;;
2022/11/03 00:06:22;;;;;;;11.53;6.70;;;;;;;9.08;87.07;101056.02;3310091;83;21042;-76
2022/11/03 00:11:14;;;;;;;12.40;6.30;;;;;;;9.03;86.94;101058.92;3289038;84;20974;-76
2022/11/03 00:16:08;;;;;;;15.53;6.35;;;;;;;8.96;86.71;101056.56;3296040;84;21349;-76
2022/11/03 00:21:04;;;;;;;10.43;5.53;;;;;;;8.91;86.43;101054.67;3314101;84;20916;-76
2022/11/03 00:26:04;;;;;;;9.05;5.33;;;;;;;8.84;86.41;101059.22;3272451;83;21042;-76
2022/11/03 00:30:55;;;;;;;11.40;5.33;;;;;;;8.76;86.17;101068.05;3308580;84;20936;-76
2022/11/03 00:35:46;;;;;;;11.97;5.83;;;;;;;8.70;86.29;101068.74;3235732;85;20981;-75
2022/11/03 00:40:38;;;;;;;11.45;5.83;;;;;;;8.61;85.92;101050.33;3304154;83;21249;-76
2022/11/03 00:45:29;;;;;;;10.28;5.33;;;;;;;8.54;85.91;101056.16;3298383;83;20991;-75
2022/11/03 00:50:20;;;;;;;8.13;5.05;;;;;;;8.38;85.48;101059.95;3338586;83;20963;-75
2022/11/03 00:55:12;;;;;;;10.55;5.22;;;;;;;8.38;85.48;101059.95;3336404;84;21054;-76
2022/11/03 01:00:05;;;;;;;9.98;5.20;;;;;;;8.33;85.83;101070.16;3296905;83;20979;-75
2022/11/03 01:10:08;;;;;;;8.53;5.78;;;;;;;8.24;85.70;101077.64;3335659;85;20967;-75
2022/11/03 01:14:59;;;;;;;11.20;4.62;;;;;;;8.21;85.87;101093.10;3305314;85;20939;-75
2022/11/03 01:19:51;;;;;;;8.63;4.50;;;;;;;8.15;85.69;101089.00;3326009;83;21556;-75
2022/11/03 01:24:44;;;;;;;8.45;5.00;;;;;;;8.11;85.53;101089.73;3263769;85;20981;-75
2022/11/03 01:29:35;;;;;;;8.08;4.90;;;;;;;8.05;85.62;101084.34;3291123;85;21076;-75
2022/11/03 01:34:26;;;;;;;5.83;3.80;;;;;;;7.96;85.37;101081.92;3244825;83;21142;-75
2022/11/03 01:39:19;;;;;;;5.78;4.10;;;;;;;7.93;85.50;101091.30;3312695;84;21099;-72
2022/11/03 01:44:16;;;;;;;7.20;5.05;;;;;;;7.82;85.41;101080.58;3294370;85;20981;-75
2022/11/03 01:49:12;;;;;;;10.72;4.35;;;;;;;7.82;85.39;101090.94;3316025;85;21014;-75
2022/11/03 01:54:08;;;;;;;10.60;4.43;;;;;;;7.77;85.36;101091.19;3290991;84;21185;-75
2022/11/03 01:59:00;;;;;;;8.75;3.95;;;;;;;7.60;85.03;101101.84;3348958;83;21519;-75
2022/11/03 02:03:56;;;;;;;8.83;4.05;;;;;;;7.60;85.03;101101.84;3315414;83;20930;-75
2022/11/03 02:09:07;;;;;;;7.78;4.40;;;;;;;7.50;85.41;101095.87;3306644;85;21520;-75
2022/11/03 02:13:59;;;;;;;9.30;4.33;;;;;;;7.22;85.36;101093.56;3311953;85;20937;-74
2022/11/03 02:18:52;;;;;;;6.75;4.50;;;;;;;7.22;85.36;101093.56;3224539;85;21786;-74
2022/11/03 02:24:24;;;;;;;8.88;4.40;;;;;;;7.11;85.36;101102.64;3279913;85;20994;-75
2022/11/03 02:29:16;;;;;;;9.05;4.15;;;;;;;7.00;85.34;101105.25;3241095;84;21583;-75
2022/11/03 02:34:24;;;;;;;6.50;3.60;;;;;;;6.86;85.41;101109.89;3253055;86;21224;-74
2022/11/03 02:39:24;;;;;;;6.97;4.17;;;;;;;6.75;85.32;101114.64;3287056;85;21063;-74
2022/11/03 02:44:18;;;;;;;8.13;3.95;;;;;;;6.65;85.66;101117.69;3292175;84;21154;-74
2022/11/03 02:49:10;;;;;;;10.03;4.42;;;;;;;6.59;85.59;101123.91;3184736;87;20988;-75
2022/11/03 02:54:21;;;;;;;7.50;4.42;;;;;;;6.51;85.72;101125.30;3149870;87;21006;-74
2022/11/03 02:59:17;;;;;;;7.37;4.08;;;;;;;6.45;85.75;101130.69;3147623;87;21091;-74
2022/11/03 03:04:09;;;;;;;7.03;4.15;;;;;;;6.44;86.08;101130.23;3197155;87;21059;-75
2022/11/03 03:09:06;;;;;;;7.97;4.72;;;;;;;6.40;86.24;101127.06;3212194;87;21872;-74
2022/11/03 03:13:57;;;;;;;7.53;4.67;;;;;;;6.37;86.21;101129.52;3239871;86;28921;-75
2022/11/03 03:18:54;;;;;;;6.60;4.17;;;;;;;6.34;86.12;101134.55;3214632;87;21507;-75
2022/11/03 03:24:00;;;;;;;5.60;4.47;;;;;;;6.28;86.15;101138.19;3211782;85;20943;-75
2022/11/03 03:29:15;;;;;;;9.25;5.40;;;;;;;6.23;86.28;101139.69;3220073;87;21057;-75
2022/11/03 03:34:08;;;;;;;7.53;5.03;;;;;;;6.20;86.56;101143.42;3214343;87;22448;-75
2022/11/03 03:39:03;;;;;;;9.28;4.58;;;;;;;6.16;86.52;101144.12;3226576;86;21015;-75
2022/11/03 03:43:59;;;;;;;9.58;4.78;;;;;;;6.09;86.29;101141.69;3206478;87;21708;-75
2022/11/03 03:48:50;;;;;;;8.68;4.50;;;;;;;6.04;86.42;101149.64;3203695;87;20986;-74
2022/11/03 03:53:41;;;;;;;7.20;4.53;;;;;;;5.97;86.36;101144.63;3187054;87;21601;-74
2022/11/03 03:58:33;;;;;;;9.93;5.55;;;;;;;5.88;86.12;101139.95;3196986;87;21342;-75
2022/11/03 04:03:25;;;;;;;8.88;5.37;;;;;;;5.82;86.19;101147.83;3166735;87;21013;-75
2022/11/03 04:08:17;;;;;;;12.47;5.00;;;;;;;5.77;86.21;101150.61;3166751;86;21534;-75
2022/11/03 04:23:30;;;;;;;7.70;5.25;;;;;;;5.61;86.23;101169.28;3239187;86;21825;-75
2022/11/03 04:28:26;;;;;;;8.25;5.72;;;;;;;5.56;86.32;101172.47;3186450;87;21085;-75
2022/11/03 04:33:20;;;;;;;10.13;6.00;;;;;;;5.56;87.07;101165.61;3206715;85;21046;-75
2022/11/03 04:38:22;;;;;;;17.77;6.00;;;;;;;5.58;86.92;101158.84;3222278;86;21039;-76
2022/11/03 04:43:17;;;;;;;7.12;5.03;;;;;;;5.57;87.04;101162.64;3209808;87;21082;-75
2022/11/03 04:48:15;;;;;;;7.08;4.90;;;;;;;5.56;86.96;101167.31;3202083;87;22688;-77
2022/11/03 04:53:16;;;;;;;10.00;4.53;;;;;;;5.48;86.45;101164.41;3186382;86;20954;-76
2022/11/03 04:58:36;;;;;;;;;;;;;;;;;;;;;
2022/11/03 05:03:34;;;;;;;6.78;4.65;;;;;;;5.33;86.38;101171.92;3169814;86;21035;-75
2022/11/03 05:09:02;;;;;;;9.35;5.40;;;;;;;5.28;86.62;101165.67;3188946;87;21062;-76
2022/11/03 05:14:03;;;;;;;14.45;7.03;;;;;;;5.23;86.62;101176.17;3090507;89;21165;-75
2022/11/03 05:18:57;;;;;;;8.68;5.97;;;;;;;5.19;86.71;101176.86;3078205;90;21122;-76
2022/11/03 05:24:28;;;;;;;;;;;;;;;;;;;;;
2022/11/03 05:29:22;;;;;;;9.75;7.15;;;;;;;5.06;86.47;101183.14;3028657;91;21016;-73
2022/11/03 05:34:31;;;;;;;6.15;5.35;;;;;;;5.03;86.57;101179.55;3082986;90;22329;-74
2022/11/03 05:44:47;;;;;;;12.18;5.75;;;;;;;4.93;86.69;101191.09;2975005;93;21349;-75
2022/11/03 05:49:38;;;;;;;8.50;6.70;;;;;;;4.94;86.90;101192.87;2968379;92;21115;-74
2022/11/03 05:54:34;;;;;;;9.05;6.80;;;;;;;4.93;86.89;101180.37;2975991;92;21415;-74
2022/11/03 05:59:29;;;;;;;7.78;5.55;;;;;;;4.92;86.72;101187.64;3008082;91;21045;-74
2022/11/03 06:04:26;;;;;;;7.28;6.10;;;;;;;4.90;86.39;101194.42;2992090;92;21078;-75
2022/11/03 06:09:22;;;;;;;9.53;7.60;;;;;;;4.92;86.73;101192.80;3044152;91;21101;-75
2022/11/03 06:14:21;;;;;;;8.48;6.00;;;;;;;4.93;86.78;101188.52;3125279;87;21533;-75
2022/11/03 06:19:28;;;;;;;11.93;6.40;;;;;;;4.92;86.59;101194.08;3203568;86;21563;-74
2022/11/03 06:24:24;;;;;;;8.93;6.65;;;;;;;4.95;86.81;101200.68;3221578;87;21130;-75
2022/11/03 06:29:19;;;;;;;9.75;6.25;;;;;;;5.00;87.06;101206.45;3225151;86;22266;-75
2022/11/03 06:34:37;;;;;;;9.88;6.87;;;;;;;5.06;87.07;101209.30;3230447;86;21615;-75
2022/11/03 06:39:29;;;;;;;9.23;7.50;;;;;;;5.14;87.54;101211.43;3221179;86;21494;-74
2022/11/03 06:44:25;;;;;;;12.13;7.40;;;;;;;5.27;88.04;101206.84;3196467;87;20966;-74
2022/11/03 06:49:35;;;;;;;13.83;8.08;;;;;;;5.39;88.08;101215.56;3218793;87;22909;-74
2022/11/03 06:54:26;;;;;;;14.73;9.38;;;;;;;5.51;88.25;101213.55;3210538;87;21261;-75
2022/11/03 06:59:19;;;;;;;16.55;9.63;;;;;;;5.63;88.57;101219.23;3247289;86;21030;-75
2022/11/03 07:04:27;;;;;;;17.00;9.20;;;;;;;5.81;88.89;101213.14;3179928;86;21085;-75
2022/11/03 07:09:25;;;;;;;11.53;8.08;;;;;;;5.93;88.68;101218.84;3268168;86;21097;-75
2022/11/03 07:14:26;;;;;;;15.63;8.55;;;;;;;6.03;88.59;101213.31;3232001;86;21355;-75
2022/11/03 07:19:34;;;;;;;13.95;8.35;;;;;;;6.17;88.72;101211.33;3267810;85;21026;-75
2022/11/03 07:24:31;;;;;;;16.62;9.98;;;;;;;6.30;88.76;101212.73;3328042;85;20979;-74
2022/11/03 07:29:26;;;;;;;14.95;8.35;;;;;;;6.43;88.69;101209.82;3325047;83;21518;-74
2022/11/03 07:34:22;;;;;;;18.27;9.30;;;;;;;6.64;88.58;101206.37;3259405;83;20959;-75
2022/11/03 07:39:17;;;;;;;14.18;8.50;;;;;;;6.74;88.54;101202.45;3344470;83;20999;-75
2022/11/03 07:44:19;;;;;;;13.75;8.83;;;;;;;6.92;88.31;101177.73;3268914;84;23863;-75
2022/11/03 07:49:19;;;;;;;25.45;17.73;;;;;;;6.92;88.31;101177.73;3284828;85;20995;-74
2022/11/03 07:54:24;;;;;;;20.08;12.07;;;;;;;7.11;88.23;101194.86;3297911;85;21532;-75
2022/11/03 07:59:24;;;;;;;23.35;16.12;;;;;;;7.23;88.03;101188.45;3279220;85;21477;-73
2022/11/03 08:04:31;;;;;;;16.48;10.93;;;;;;;7.52;87.94;101182.19;3312447;85;20907;-76
2022/11/03 08:09:23;;;;;;;16.67;10.10;;;;;;;7.52;87.94;101182.19;3286362;83;22502;-76
2022/11/03 08:14:14;;;;;;;21.55;15.38;;;;;;;7.87;87.21;101190.36;3285553;84;21065;-75
2022/11/03 08:19:06;;;;;;;17.82;7.70;;;;;;;7.98;86.91;101179.95;3311124;84;21707;-77
2022/11/03 08:24:23;;;;;;;;;;;;;;;;;;;;;
2022/11/03 08:29:39;;;;;;;11.35;6.53;;;;;;;8.25;86.68;101177.85;3335249;84;20954;-78
2022/11/03 08:34:59;;;;;;;11.57;6.15;;;;;;;8.43;86.24;101181.93;3295945;84;21001;-77
2022/11/03 08:39:46;;;;;;;9.65;5.85;;;;;;;8.88;85.18;101188.12;3316991;85;21006;-77
2022/11/03 08:44:38;;;;;;;11.20;6.53;;;;;;;9.99;83.58;101178.34;3280979;83;21614;-78
2022/11/03 08:49:29;;;;;;;12.20;5.97;;;;;;;10.73;81.38;101169.42;3284177;85;20986;-77
2022/11/03 08:54:20;;;;;;;8.85;5.50;;;;;;;10.76;81.80;101169.48;3276181;85;21010;-77
2022/11/03 08:59:11;;;;;;;13.28;6.60;;;;;;;11.71;80.38;101170.63;3298645;84;22112;-78
2022/11/03 09:04:25;;;;;;;;;;;;;;;;;;;;;
2022/11/03 09:09:09;;;;;;;;;;;;;;;11.87;79.01;101176.16;3271262;85;21038;-78
2022/11/03 09:14:01;;;;;;;13.80;8.53;;;;;;;12.22;78.05;101169.45;3259052;85;20165;-77
2022/11/03 09:18:52;;;;;;;11.48;5.97;;;;;;;13.09;77.32;101168.61;3303976;84;21286;-78
2022/11/03 09:23:44;;;;;;;9.28;5.37;;;;;;;13.16;75.62;101165.23;3311055;85;22038;-80
2022/11/03 09:28:35;;;;;;;17.98;7.08;;;;;;;13.31;76.18;101167.22;3322414;83;21018;-79
2022/11/03 09:33:26;;;;;;;13.48;5.72;;;;;;;13.14;76.04;101174.77;3278051;84;21438;-79
2022/11/03 09:38:56;;;;;;;;;;;;;;;;;;;;;
2022/11/03 09:44:08;;;;;;;;;;;;;;;;;;;;;
2022/11/03 09:54:12;;;;;;;7.97;4.28;;;;;;;14.42;73.35;101160.54;3245083;85;20975;-78
2022/11/03 09:59:15;;;;;;;9.48;4.30;;;;;;;14.94;71.64;101148.29;3310356;83;21050;-78
2022/11/03 10:04:10;;;;;;;10.13;5.60;;;;;;;14.87;71.84;101137.77;3296309;84;21036;-78
2022/11/03 10:09:03;;;;;;;11.45;5.87;;;;;;;15.51;70.67;101128.47;3273552;85;20975;-77
2022/11/03 10:13:57;;;;;;;7.85;4.12;;;;;;;15.09;71.54;101127.41;3301533;84;21126;-78
2022/11/03 10:18:49;;;;;;;10.38;5.10;;;;;;;15.51;70.70;101120.60;3268259;85;20995;-77
2022/11/03 10:23:40;;;;;;;13.35;6.90;;;;;;;15.79;69.85;101114.13;3289755;83;20962;-76
2022/11/03 10:28:32;;;;;;;7.75;4.40;;;;;;;15.67;69.22;101108.83;3268227;84;21007;-79
2022/11/03 10:33:36;;;;;;;7.45;4.05;;;;;;;15.80;69.15;101110.20;3266058;85;20958;-77
2022/11/03 10:38:34;;;;;;;7.05;3.83;;;;;;;15.86;68.30;101113.27;3251126;85;22438;-75
2022/11/03 10:43:25;;;;;;;6.47;3.05;;;;;;;16.80;67.58;101109.75;3241832;85;21622;-77
2022/11/03 10:48:16;;;;;;;9.70;3.33;;;;;;;17.80;65.32;101098.81;3321186;85;20987;-75
2022/11/03 10:58:21;;;;;;;10.13;4.17;;;;;;;17.84;65.22;101092.19;3281910;86;21055;-77
2022/11/03 11:03:30;;;;;;;7.90;2.90;;;;;;;19.12;62.76;101083.55;3256249;85;22238;-78
2022/11/03 11:08:43;;;;;;;9.08;3.60;;;;;;;20.12;61.12;101075.09;3292412;85;22178;-78
2022/11/03 11:14:34;;;;;;;9.65;5.70;;;;;;;20.39;61.12;101079.48;3236270;86;21022;-78
2022/11/03 11:20:15;;;;;;;8.63;4.05;;;;;;;20.51;60.95;101076.61;3121065;89;21669;-78
2022/11/03 11:25:25;;;;;;;;;;;;;;;;;;;;;
2022/11/03 11:30:34;;;;;;;13.30;6.90;;;;;;;20.76;58.40;101061.63;3151968;89;21022;-78
2022/11/03 11:35:54;;;;;;;8.60;3.10;;;;;;;20.72;58.09;101053.34;3134390;89;21630;-79
2022/11/03 11:40:52;;;;;;;18.87;8.60;;;;;;;20.01;58.42;101042.71;3135906;88;21068;-77
2022/11/03 11:46:41;;;;;;;9.98;3.45;;;;;;;18.78;58.60;101040.03;3166777;88;21569;-78
2022/11/03 11:51:57;;;;;;;7.35;3.08;;;;;;;18.34;58.63;101044.01;3069066;90;21058;-77
2022/11/03 11:56:50;;;;;;;6.97;2.90;;;;;;;17.85;59.16;101025.59;3073507;90;21081;-77
2022/11/03 12:01:52;;;;;;;6.33;2.87;;;;;;;17.13;59.91;101017.73;3061700;91;21081;-76
2022/11/03 12:12:17;;;;;;;7.03;3.20;;;;;;;16.41;60.74;101015.78;3199029;86;21128;-78
2022/11/03 12:17:37;;;;;;;29.72;18.45;;;;;;;16.06;60.83;101017.59;3210962;86;20990;-79
2022/11/03 12:23:03;;;;;;;;;;;;;;;;;;;;;
2022/11/03 12:27:56;;;;;;;13.35;6.70;;;;;;;15.37;60.43;101009.20;3144529;88;21071;-76
2022/11/03 12:32:56;;;;;;;4.85;3.02;;;;;;;14.97;61.09;100997.33;3107579;89;21047;-76
2022/11/03 12:37:55;;;;;;;14.43;4.80;;;;;;;14.68;61.34;101002.42;3090495;89;21119;-76
2022/11/03 12:43:06;;;;;;;11.22;4.53;;;;;;;14.47;61.01;100994.89;3121904;89;21097;-77
2022/11/03 12:48:08;;;;;;;6.85;2.92;;;;;;;14.37;62.05;100989.59;3142671;89;21667;-77
2022/11/03 12:53:13;;;;;;;6.40;2.75;;;;;;;14.35;62.36;100986.97;3129390;89;21120;-77
2022/11/03 12:58:09;;;;;;;4.90;2.08;;;;;;;14.30;62.12;100991.30;2964920;94;21580;-77
2022/11/03 13:03:00;;;;;;;6.53;1.95;;;;;;;14.21;62.00;100980.78;3057399;91;21486;-78
2022/11/03 13:08:16;;;;;;;;;;;;;;;;;;;;;
2022/11/03 13:12:53;;;;;;;7.58;2.60;;;;;;;14.06;61.96;100978.52;3019920;92;21105;-76
2022/11/03 13:17:45;;;;;;;8.73;2.40;;;;;;;14.06;62.29;100978.95;3045794;90;21153;-76
2022/11/03 13:22:38;;;;;;;8.18;2.58;;;;;;;14.08;62.82;100975.47;3089723;89;21042;-76
2022/11/03 13:27:29;;;;;;;8.35;2.55;;;;;;;14.02;62.16;100968.91;3099698;89;21595;-75
2022/11/03 13:32:20;;;;;;;3.83;1.80;;;;;;;13.90;62.75;100970.13;3071213;91;21121;-75
2022/11/03 13:37:14;;;;;;;6.92;2.50;;;;;;;13.79;62.45;100973.06;3107005;88;22196;-77
2022/11/03 13:42:08;;;;;;;6.47;1.90;;;;;;;13.70;63.02;100969.53;3078739;89;21582;-76
2022/11/03 13:47:03;;;;;;;5.10;2.05;;;;;;;13.63;63.20;100974.27;3137580;89;21011;-76
2022/11/03 13:51:54;;;;;;;7.45;2.75;;;;;;;13.53;62.87;100956.75;3108398;89;21093;-76
2022/11/03 13:56:45;;;;;;;6.22;1.98;;;;;;;13.41;63.04;100954.03;3136008;88;21042;-76
2022/11/03 14:01:38;;;;;;;9.68;3.72;;;;;;;13.20;62.47;100951.64;3130151;89;21121;-77
2022/11/03 14:06:30;;;;;;;3.12;1.60;;;;;;;13.00;64.13;100952.71;3129997;85;21983;-76
2022/11/03 14:16:35;;;;;;;10.32;2.70;;;;;;;12.49;65.04;100947.35;3307226;84;21017;-78
2022/11/03 14:21:26;;;;;;;6.37;2.50;;;;;;;12.25;64.98;100940.97;3272900;83;20979;-76
2022/11/03 14:26:22;;;;;;;4.83;2.10;;;;;;;12.01;65.78;100953.20;3329872;85;21461;-75
2022/11/03 14:31:10;;;;;;;5.50;1.95;;;;;;;11.79;66.40;100958.05;3304348;85;20994;-75
2022/11/03 14:36:01;;;;;;;9.98;1.82;;;;;;;11.53;66.78;100956.75;3282795;85;20989;-74
2022/11/03 14:46:12;;;;;;;6.30;2.20;;;;;;;11.09;67.58;100946.41;3315796;84;20982;-74
2022/11/03 14:51:03;;;;;;;6.42;2.42;;;;;;;10.87;67.99;100943.41;3293911;84;21056;-75
2022/11/03 14:55:59;;;;;;;8.48;2.42;;;;;;;10.68;68.32;100934.39;3261021;83;21030;-75
2022/11/03 15:00:51;;;;;;;9.00;2.52;;;;;;;10.49;69.01;100935.72;3327957;84;20988;-74
2022/11/03 15:05:53;;;;;;;8.40;2.10;;;;;;;10.23;69.30;100929.53;3302748;84;20958;-75
2022/11/03 15:10:43;;;;;;;7.20;2.75;;;;;;;10.00;69.66;100926.84;3346532;84;20956;-75
2022/11/03 15:15:43;;;;;;;4.83;2.30;;;;;;;9.74;69.90;100928.40;3329775;85;21694;-75
2022/11/03 15:20:30;;;;;;;7.10;2.80;;;;;;;9.50;70.35;100925.67;3286279;85;21009;-75
2022/11/03 15:25:21;;;;;;;6.35;2.92;;;;;;;9.32;70.68;100927.82;3311311;85;21340;-75
2022/11/03 15:30:15;;;;;;;4.33;1.95;;;;;;;9.13;70.97;100926.45;3299387;85;21082;-75
2022/11/03 15:35:08;;;;;;;9.43;2.67;;;;;;;8.96;71.22;100918.24;3290764;84;20942;-75
2022/11/03 15:39:59;;;;;;;5.78;2.30;;;;;;;8.80;71.60;100929.01;3275079;83;20962;-75
2022/11/03 15:44:52;;;;;;;8.05;3.05;;;;;;;8.61;71.51;100918.14;3317332;83;21579;-75
2022/11/03 15:49:45;;;;;;;8.45;3.00;;;;;;;8.45;72.18;100909.47;3304758;84;21136;-75
2022/11/03 15:54:36;;;;;;;7.22;3.72;;;;;;;8.31;72.47;100911.63;3254612;83;22328;-75
2022/11/03 15:59:29;;;;;;;10.72;4.53;;;;;;;8.16;72.76;100897.81;3282501;85;21616;-75
2022/11/03 16:04:23;;;;;;;15.83;3.62;;;;;;;8.02;73.17;100898.69;3276036;83;21514;-75
2022/11/03 16:09:23;;;;;;;5.92;2.70;;;;;;;7.89;73.34;100895.28;3326921;85;21010;-74
2022/11/03 16:14:20;;;;;;;7.42;3.72;;;;;;;7.72;72.89;100894.73;3311991;84;21774;-75
2022/11/03 16:19:09;;;;;;;11.27;3.93;;;;;;;7.60;73.63;100895.22;3312801;84;20935;-75
2022/11/03 16:24:04;;;;;;;10.50;4.33;;;;;;;7.48;73.95;100895.72;3265410;84;20993;-78
2022/11/03 16:28:55;;;;;;;8.25;3.67;;;;;;;7.36;74.05;100899.20;3282338;84;21205;-75
2022/11/03 16:33:46;;;;;;;9.55;4.20;;;;;;;7.23;74.82;100891.03;3306140;84;21536;-75
2022/11/03 16:38:37;;;;;;;7.55;3.37;;;;;;;6.98;74.61;100865.19;3279206;85;20993;-76
2022/11/03 16:43:29;;;;;;;11.38;4.30;;;;;;;6.98;74.61;100865.19;3301357;85;21588;-75
2022/11/03 16:48:21;;;;;;;5.80;3.15;;;;;;;6.90;74.77;100879.54;3291123;85;21544;-75
2022/11/03 16:53:12;;;;;;;7.08;3.42;;;;;;;6.76;74.57;100873.50;3281569;84;20962;-75
2022/11/03 16:58:03;;;;;;;8.15;3.83;;;;;;;6.64;74.74;100873.06;3319869;85;21438;-75
2022/11/03 17:02:54;;;;;;;11.85;7.33;;;;;;;6.40;75.02;100853.28;3334395;83;20969;-75
2022/11/03 17:07:46;;;;;;;10.50;6.28;;;;;;;6.40;75.02;100853.28;3323624;85;21026;-75
2022/11/03 17:12:37;;;;;;;8.28;6.55;;;;;;;6.35;75.33;100855.20;3330706;85;21046;-75
2022/11/03 17:17:30;;;;;;;8.90;6.08;;;;;;;6.25;75.24;100846.26;3294810;83;41176;-75
2022/11/03 17:22:21;;;;;;;13.05;7.03;;;;;;;6.17;75.42;100842.12;3265403;84;20970;-75
2022/11/03 17:27:39;;;;;;;21.25;12.78;;;;;;;6.06;75.37;100839.53;3343352;85;20959;-75
2022/11/03 17:32:39;;;;;;;;;;;;;;;5.92;75.74;100841.16;3164782;89;21469;-75
2022/11/03 17:37:30;;;;;;;16.00;11.28;;;;;;;5.84;75.99;100828.37;3138853;89;20589;-75
2022/11/03 17:42:26;;;;;;;18.35;9.13;;;;;;;5.76;76.35;100818.19;3162175;89;22815;-75
2022/11/03 17:47:19;;;;;;;19.70;9.13;;;;;;;5.74;76.59;100797.88;3137457;89;21109;-75
2022/11/03 17:52:16;;;;;;;14.90;8.78;;;;;;;5.69;76.45;100789.98;3126196;89;21615;-75
2022/11/03 17:57:12;;;;;;;17.67;8.57;;;;;;;5.60;76.40;100779.31;3120759;89;21047;-75
2022/11/03 18:02:03;;;;;;;14.10;10.20;;;;;;;5.52;76.85;100783.28;3156835;89;20994;-75
2022/11/03 18:06:55;;;;;;;24.27;10.53;;;;;;;5.49;77.05;100784.45;3227032;85;21187;-75
2022/11/03 18:16:57;;;;;;;16.02;9.88;;;;;;;5.42;77.32;100795.34;3318491;84;20978;-75
2022/11/03 18:22:04;;;;;;;20.88;11.30;;;;;;;5.41;77.41;100789.73;3282298;84;21683;-76
2022/11/03 18:27:01;;;;;;;18.87;11.93;;;;;;;5.37;77.32;100790.45;3301152;84;20986;-75
2022/11/03 18:31:51;;;;;;;15.50;10.03;;;;;;;5.29;77.30;100800.05;3287939;85;21525;-76
2022/11/03 18:36:57;;;;;;;;;;;;;;;;;;;;;
2022/11/03 18:41:49;;;;;;;25.12;14.47;;;;;;;5.19;77.49;100795.34;3273966;84;21029;-75
2022/11/03 18:46:42;;;;;;;18.77;11.70;;;;;;;5.13;77.54;100782.19;3303039;85;21276;-77
2022/11/03 18:51:43;;;;;;;27.37;14.80;;;;;;;5.07;77.65;100775.09;3223511;85;21493;-76
2022/11/03 19:01:43;;;;;;;33.42;21.50;;;;;;;4.95;77.67;100765.20;3177827;88;21053;-76
2022/11/03 19:06:40;;;;;;;;;;;;;;;4.88;77.53;100760.99;3154285;88;21033;-76
2022/11/03 19:11:32;;;;;;;25.88;16.65;;;;;;;4.80;77.78;100752.96;3172411;88;20564;-77
2022/11/03 19:16:40;;;;;;;24.87;18.15;;;;;;;4.76;78.20;100753.66;3180746;88;21520;-77
2022/11/03 19:21:32;;;;;;;21.05;15.28;;;;;;;4.71;78.20;100747.02;3207467;87;21556;-75
2022/11/03 19:26:28;;;;;;;25.48;14.13;;;;;;;4.67;78.36;100739.09;3227227;86;21079;-75
2022/11/03 19:31:59;;;;;;;;;;;;;;;;;;;;;
2022/11/03 19:36:58;;;;;;;19.90;14.13;;;;;;;4.58;78.36;100721.17;3222991;85;21058;-78
2022/11/03 19:47:04;;;;;;;25.27;14.90;;;;;;;4.47;78.42;100715.09;3297509;85;21246;-75
2022/11/03 19:51:56;;;;;;;16.60;11.83;;;;;;;4.41;78.58;100708.01;3261116;86;21106;-75
2022/11/03 19:57:06;;;;;;;20.25;14.07;;;;;;;4.36;78.58;100709.50;3262976;84;21006;-75
2022/11/03 20:18:17;;;;;;;18.73;12.23;;;;;;;4.20;79.24;100694.72;3250010;86;21204;-75
2022/11/03 20:23:30;;;;;;;21.10;13.45;;;;;;;4.18;79.35;100682.17;3244837;86;20920;-75
2022/11/03 20:28:31;;;;;;;19.27;11.20;;;;;;;4.18;79.58;100678.73;3201376;87;21019;-75
2022/11/03 20:33:24;;;;;;;20.45;13.25;;;;;;;4.15;79.65;100675.62;3069293;90;21120;-75
2022/11/03 20:38:19;;;;;;;22.07;12.47;;;;;;;4.16;79.98;100665.79;3081720;90;21531;-76
2022/11/03 20:43:36;;;;;;;18.05;12.65;;;;;;;4.17;80.15;100654.70;3101569;89;21027;-74
2022/11/03 20:48:28;;;;;;;17.32;10.88;;;;;;;4.19;80.44;100650.48;3046922;92;21072;-75
2022/11/03 20:53:22;;;;;;;15.45;11.45;;;;;;;4.18;80.61;100643.98;3056811;90;21451;-74
2022/11/03 20:58:16;;;;;;;20.52;11.05;;;;;;;4.19;80.71;100641.48;3010161;92;21711;-75
2022/11/03 21:03:20;;;;;;;19.40;10.88;;;;;;;4.19;80.94;100631.19;3061246;90;21100;-74
2022/11/03 21:08:12;;;;;;;19.50;12.82;;;;;;;4.18;80.99;100629.41;3143128;89;21009;-74
2022/11/03 21:13:04;;;;;;;20.05;11.03;;;;;;;4.18;81.36;100620.83;3204225;85;21396;-75
2022/11/03 21:23:22;;;;;;;18.37;12.47;;;;;;;4.15;81.41;100601.00;3244627;85;21135;-75
2022/11/03 21:28:15;;;;;;;24.63;12.90;;;;;;;4.15;81.51;100589.42;3206537;87;21247;-73
2022/11/03 21:33:11;;;;;;;20.55;12.25;;;;;;;4.15;81.60;100577.84;3230500;86;21145;-74
2022/11/03 21:38:04;;;;;;;17.67;12.30;;;;;;;4.14;81.90;100573.50;3231350;86;21069;-75
2022/11/03 21:53:49;;;;;;;15.43;10.13;;;;;;;4.14;82.02;100556.77;3206172;86;21507;-75
2022/11/03 21:58:44;;;;;;;16.95;11.75;;;;;;;4.13;82.21;100558.89;3208451;86;21046;-77
2022/11/03 22:03:38;;;;;;;17.50;11.75;;;;;;;4.15;82.39;100553.40;3188784;86;21554;-74
2022/11/03 22:08:48;;;;;;;19.12;10.75;;;;;;;4.13;82.34;100549.89;3177664;86;20987;-76
2022/11/03 22:13:59;;;;;;;20.60;11.08;;;;;;;4.11;82.32;100543.77;3191634;86;21430;-75
2022/11/03 22:26:54;;;;;;;13.83;11.68;;;;;;;4.09;82.42;100545.41;3179992;85;21623;-76
2022/11/03 22:49:40;;;;;;;16.10;10.28;;;;;;;3.90;82.64;100510.37;3166887;86;21556;-75
2022/11/03 22:54:31;;;;;;;15.78;9.20;;;;;;;3.89;82.54;100505.16;3241101;85;21101;-75
2022/11/03 22:59:23;;;;;;;12.53;8.30;;;;;;;3.84;82.56;100505.37;3215976;86;20990;-75
2022/11/03 23:04:14;;;;;;;13.80;8.73;;;;;;;3.81;82.51;100503.16;3169989;86;21050;-75
2022/11/03 23:09:07;;;;;;;13.80;8.30;;;;;;;3.76;82.49;100498.22;3179464;86;20990;-75
2022/11/03 23:14:06;;;;;;;15.53;8.45;;;;;;;3.75;82.69;100509.31;3169894;87;21056;-75
2022/11/03 23:29:18;;;;;;;12.90;9.25;;;;;;;3.71;82.99;100484.30;3170154;87;21007;-75
2022/11/03 23:34:10;;;;;;;13.25;8.83;;;;;;;3.69;82.94;100482.08;3180221;86;21632;-76
2022/11/03 23:39:03;;;;;;;11.15;8.23;;;;;;;3.69;83.13;100474.78;3156893;87;21151;-77
2022/11/03 23:43:55;;;;;;;14.03;8.48;;;;;;;3.66;83.06;100466.52;3187310;85;21017;-77
2022/11/03 23:48:52;;;;;;;12.68;8.93;;;;;;;3.62;83.03;100468.08;3194389;86;21000;-76
2022/11/03 23:53:44;;;;;;;14.10;8.77;;;;;;;3.62;83.09;100451.78;3170608;86;21034;-77
2022/11/03 23:58:36;;;;;;;12.45;8.03;;;;;;;3.55;82.67;100456.20;3165121;87;21158;-77
